sensor_id;sensor_type;location;lat;lon;timestamp;temperature;humidity
13806;DHT22;6974;53.606;9.872;2022-11-20T00:01:06;4.00;99.90
13806;DHT22;6974;53.606;9.872;2022-11-20T00:03:33;4.00;99.90
13806;DHT22;6974;53.606;9.872;2022-11-20T00:06:02;4.00;99.90
13806;DHT22;6974;53.606;9.872;2022-11-20T00:08:30;4.00;99.90
13806;DHT22;6974;53.606;9.872;2022-11-20T00:10:57;4.00;99.90
13806;DHT22;6974;53.606;9.872;2022-11-20T00:13:24;4.00;99.90
13806;DHT22;6974;53.606;9.872;2022-11-20T00:15:57;4.00;99.90
13806;DHT22;6974;53.606;9.872;2022-11-20T00:18:24;4.00;99.90
13806;DHT22;6974;53.606;9.872;2022-11-20T00:20:51;4.00;99.90
13806;DHT22;6974;53.606;9.872;2022-11-20T00:23:19;4.00;99.90
13806;DHT22;6974;53.606;9.872;2022-11-20T00:25:46;3.90;99.90
13806;DHT22;6974;53.606;9.872;2022-11-20T00:28:13;3.90;99.90
13806;DHT22;6974;53.606;9.872;2022-11-20T00:30:40;3.90;99.90
13806;DHT22;6974;53.606;9.872;2022-11-20T00:33:07;3.90;99.90
13806;DHT22;6974;53.606;9.872;2022-11-20T00:35:34;3.90;99.90
13806;DHT22;6974;53.606;9.872;2022-11-20T00:38:00;3.90;99.90
13806;DHT22;6974;53.606;9.872;2022-11-20T00:40:29;3.90;99.90
13806;DHT22;6974;53.606;9.872;2022-11-20T00:42:56;4.00;99.90
13806;DHT22;6974;53.606;9.872;2022-11-20T00:45:23;4.00;99.90
13806;DHT22;6974;53.606;9.872;2022-11-20T00:47:49;3.90;99.90
13806;DHT22;6974;53.606;9.872;2022-11-20T00:50:16;3.90;99.90
13806;DHT22;6974;53.606;9.872;2022-11-20T00:52:43;3.80;99.90
13806;DHT22;6974;53.606;9.872;2022-11-20T00:55:10;3.90;99.90
13806;DHT22;6974;53.606;9.872;2022-11-20T00:57:38;3.90;99.90
13806;DHT22;6974;53.606;9.872;2022-11-20T01:00:06;4.00;99.90
13806;DHT22;6974;53.606;9.872;2022-11-20T01:02:33;4.00;99.90
13806;DHT22;6974;53.606;9.872;2022-11-20T01:05:00;4.00;99.90
13806;DHT22;6974;53.606;9.872;2022-11-20T01:07:27;4.00;99.90
13806;DHT22;6974;53.606;9.872;2022-11-20T01:09:54;3.90;99.90
13806;DHT22;6974;53.606;9.872;2022-11-20T01:12:21;4.00;99.90
13806;DHT22;6974;53.606;9.872;2022-11-20T01:14:49;3.90;99.90
13806;DHT22;6974;53.606;9.872;2022-11-20T01:17:16;4.00;99.90
13806;DHT22;6974;53.606;9.872;2022-11-20T01:19:43;4.00;99.90
13806;DHT22;6974;53.606;9.872;2022-11-20T01:22:10;4.00;99.90
13806;DHT22;6974;53.606;9.872;2022-11-20T01:24:37;4.00;99.90
13806;DHT22;6974;53.606;9.872;2022-11-20T01:27:04;3.90;99.90
13806;DHT22;6974;53.606;9.872;2022-11-20T01:29:30;4.00;99.90
13806;DHT22;6974;53.606;9.872;2022-11-20T01:31:59;3.90;99.90
13806;DHT22;6974;53.606;9.872;2022-11-20T01:34:26;4.00;99.90
13806;DHT22;6974;53.606;9.872;2022-11-20T01:36:53;4.00;99.90
13806;DHT22;6974;53.606;9.872;2022-11-20T01:39:21;4.00;99.90
13806;DHT22;6974;53.606;9.872;2022-11-20T01:41:49;4.00;99.90
13806;DHT22;6974;53.606;9.872;2022-11-20T01:44:51;3.90;99.90
13806;DHT22;6974;53.606;9.872;2022-11-20T01:47:25;3.90;99.90
13806;DHT22;6974;53.606;9.872;2022-11-20T01:49:58;3.90;99.90
13806;DHT22;6974;53.606;9.872;2022-11-20T01:52:29;3.90;99.90
13806;DHT22;6974;53.606;9.872;2022-11-20T01:55:00;3.90;99.90
13806;DHT22;6974;53.606;9.872;2022-11-20T01:57:30;3.90;99.90
13806;DHT22;6974;53.606;9.872;2022-11-20T02:00:03;3.90;99.90
13806;DHT22;6974;53.606;9.872;2022-11-20T02:02:32;3.90;99.90
13806;DHT22;6974;53.606;9.872;2022-11-20T02:05:04;3.90;99.90
13806;DHT22;6974;53.606;9.872;2022-11-20T02:07:36;3.90;99.90
13806;DHT22;6974;53.606;9.872;2022-11-20T02:10:04;3.90;99.90
13806;DHT22;6974;53.606;9.872;2022-11-20T02:12:31;3.90;99.90
13806;DHT22;6974;53.606;9.872;2022-11-20T02:15:15;3.90;99.90
13806;DHT22;6974;53.606;9.872;2022-11-20T02:17:43;3.90;99.90
13806;DHT22;6974;53.606;9.872;2022-11-20T02:20:11;3.90;99.90
13806;DHT22;6974;53.606;9.872;2022-11-20T02:22:43;3.90;99.90
13806;DHT22;6974;53.606;9.872;2022-11-20T02:25:14;3.90;99.90
13806;DHT22;6974;53.606;9.872;2022-11-20T02:27:41;3.90;99.90
13806;DHT22;6974;53.606;9.872;2022-11-20T02:30:09;4.00;99.90
13806;DHT22;6974;53.606;9.872;2022-11-20T02:32:38;4.00;99.90
13806;DHT22;6974;53.606;9.872;2022-11-20T02:35:10;4.00;99.90
13806;DHT22;6974;53.606;9.872;2022-11-20T02:38:00;3.90;99.90
13806;DHT22;6974;53.606;9.872;2022-11-20T02:40:27;3.90;99.90
13806;DHT22;6974;53.606;9.872;2022-11-20T02:42:55;3.90;99.90
13806;DHT22;6974;53.606;9.872;2022-11-20T02:45:22;3.90;99.90
13806;DHT22;6974;53.606;9.872;2022-11-20T02:47:50;4.00;99.90
13806;DHT22;6974;53.606;9.872;2022-11-20T02:50:17;4.00;99.90
13806;DHT22;6974;53.606;9.872;2022-11-20T02:52:44;4.00;99.90
13806;DHT22;6974;53.606;9.872;2022-11-20T02:55:12;4.00;99.90
13806;DHT22;6974;53.606;9.872;2022-11-20T02:57:40;4.00;99.90
13806;DHT22;6974;53.606;9.872;2022-11-20T03:00:08;4.00;99.90
13806;DHT22;6974;53.606;9.872;2022-11-20T03:02:35;3.90;99.90
13806;DHT22;6974;53.606;9.872;2022-11-20T03:05:02;3.90;99.90
13806;DHT22;6974;53.606;9.872;2022-11-20T03:07:29;3.90;99.90
13806;DHT22;6974;53.606;9.872;2022-11-20T03:09:56;3.90;99.90
13806;DHT22;6974;53.606;9.872;2022-11-20T03:12:24;3.90;99.90
13806;DHT22;6974;53.606;9.872;2022-11-20T03:14:51;3.90;99.90
13806;DHT22;6974;53.606;9.872;2022-11-20T03:17:18;4.00;99.90
13806;DHT22;6974;53.606;9.872;2022-11-20T03:19:45;4.00;99.90
13806;DHT22;6974;53.606;9.872;2022-11-20T03:22:11;4.00;99.90
13806;DHT22;6974;53.606;9.872;2022-11-20T03:24:38;3.90;99.90
13806;DHT22;6974;53.606;9.872;2022-11-20T03:27:05;3.90;99.90
13806;DHT22;6974;53.606;9.872;2022-11-20T03:29:34;3.90;99.90
13806;DHT22;6974;53.606;9.872;2022-11-20T03:32:01;3.90;99.90
13806;DHT22;6974;53.606;9.872;2022-11-20T03:34:28;3.90;99.90
13806;DHT22;6974;53.606;9.872;2022-11-20T03:36:55;3.90;99.90
13806;DHT22;6974;53.606;9.872;2022-11-20T03:39:22;3.90;99.90
13806;DHT22;6974;53.606;9.872;2022-11-20T03:41:49;3.90;99.90
13806;DHT22;6974;53.606;9.872;2022-11-20T03:44:16;3.90;99.90
13806;DHT22;6974;53.606;9.872;2022-11-20T03:46:44;3.90;99.90
13806;DHT22;6974;53.606;9.872;2022-11-20T03:49:11;3.90;99.90
13806;DHT22;6974;53.606;9.872;2022-11-20T03:51:38;3.90;99.90
13806;DHT22;6974;53.606;9.872;2022-11-20T03:54:06;3.90;99.90
13806;DHT22;6974;53.606;9.872;2022-11-20T03:56:34;3.90;99.90
13806;DHT22;6974;53.606;9.872;2022-11-20T03:59:02;3.90;99.90
13806;DHT22;6974;53.606;9.872;2022-11-20T04:01:30;3.90;99.90
13806;DHT22;6974;53.606;9.872;2022-11-20T04:03:59;3.90;99.90
13806;DHT22;6974;53.606;9.872;2022-11-20T04:06:28;3.90;99.90
13806;DHT22;6974;53.606;9.872;2022-11-20T04:08:56;3.90;99.90
13806;DHT22;6974;53.606;9.872;2022-11-20T04:11:26;3.90;99.90
13806;DHT22;6974;53.606;9.872;2022-11-20T04:13:55;3.90;99.90
13806;DHT22;6974;53.606;9.872;2022-11-20T04:16:23;3.90;99.90
13806;DHT22;6974;53.606;9.872;2022-11-20T04:18:52;3.80;99.90
13806;DHT22;6974;53.606;9.872;2022-11-20T04:21:21;3.90;99.90
13806;DHT22;6974;53.606;9.872;2022-11-20T04:23:48;3.90;99.90
13806;DHT22;6974;53.606;9.872;2022-11-20T04:26:15;3.90;99.90
13806;DHT22;6974;53.606;9.872;2022-11-20T04:28:43;3.80;99.90
13806;DHT22;6974;53.606;9.872;2022-11-20T04:31:11;3.80;99.90
13806;DHT22;6974;53.606;9.872;2022-11-20T04:33:39;3.80;99.90
13806;DHT22;6974;53.606;9.872;2022-11-20T04:36:07;3.80;99.90
13806;DHT22;6974;53.606;9.872;2022-11-20T04:38:38;3.90;99.90
13806;DHT22;6974;53.606;9.872;2022-11-20T04:41:07;3.90;99.90
13806;DHT22;6974;53.606;9.872;2022-11-20T04:43:34;3.90;99.90
13806;DHT22;6974;53.606;9.872;2022-11-20T04:46:01;3.80;99.90
13806;DHT22;6974;53.606;9.872;2022-11-20T04:48:29;3.80;99.90
13806;DHT22;6974;53.606;9.872;2022-11-20T04:50:56;3.80;99.90
13806;DHT22;6974;53.606;9.872;2022-11-20T04:53:24;3.80;99.90
13806;DHT22;6974;53.606;9.872;2022-11-20T04:55:59;3.80;99.90
13806;DHT22;6974;53.606;9.872;2022-11-20T04:58:27;3.80;99.90
13806;DHT22;6974;53.606;9.872;2022-11-20T05:01:00;3.80;99.90
13806;DHT22;6974;53.606;9.872;2022-11-20T05:03:27;3.80;99.90
13806;DHT22;6974;53.606;9.872;2022-11-20T05:05:54;3.80;99.90
13806;DHT22;6974;53.606;9.872;2022-11-20T05:08:21;3.80;99.90
13806;DHT22;6974;53.606;9.872;2022-11-20T05:10:48;3.80;99.90
13806;DHT22;6974;53.606;9.872;2022-11-20T05:13:16;3.80;99.90
13806;DHT22;6974;53.606;9.872;2022-11-20T05:15:43;3.80;99.90
13806;DHT22;6974;53.606;9.872;2022-11-20T05:18:10;3.70;99.90
13806;DHT22;6974;53.606;9.872;2022-11-20T05:20:37;3.80;99.90
13806;DHT22;6974;53.606;9.872;2022-11-20T05:23:04;3.70;99.90
13806;DHT22;6974;53.606;9.872;2022-11-20T05:25:30;3.80;99.90
13806;DHT22;6974;53.606;9.872;2022-11-20T05:27:57;3.80;99.90
13806;DHT22;6974;53.606;9.872;2022-11-20T05:30:26;3.80;99.90
13806;DHT22;6974;53.606;9.872;2022-11-20T05:32:52;3.70;99.90
13806;DHT22;6974;53.606;9.872;2022-11-20T05:35:19;3.70;99.90
13806;DHT22;6974;53.606;9.872;2022-11-20T05:37:46;3.70;99.90
13806;DHT22;6974;53.606;9.872;2022-11-20T05:40:13;3.70;99.90
13806;DHT22;6974;53.606;9.872;2022-11-20T05:42:40;3.70;99.90
13806;DHT22;6974;53.606;9.872;2022-11-20T05:45:09;3.70;99.90
13806;DHT22;6974;53.606;9.872;2022-11-20T05:47:37;3.70;99.90
13806;DHT22;6974;53.606;9.872;2022-11-20T05:50:05;3.60;99.90
13806;DHT22;6974;53.606;9.872;2022-11-20T05:52:32;3.60;99.90
13806;DHT22;6974;53.606;9.872;2022-11-20T05:54:59;3.60;99.90
13806;DHT22;6974;53.606;9.872;2022-11-20T05:57:26;3.60;99.90
13806;DHT22;6974;53.606;9.872;2022-11-20T05:59:52;3.60;99.90
13806;DHT22;6974;53.606;9.872;2022-11-20T06:02:19;3.70;99.90
13806;DHT22;6974;53.606;9.872;2022-11-20T06:04:48;3.70;99.90
13806;DHT22;6974;53.606;9.872;2022-11-20T06:07:15;3.70;99.90
13806;DHT22;6974;53.606;9.872;2022-11-20T06:09:42;3.70;99.90
13806;DHT22;6974;53.606;9.872;2022-11-20T06:12:09;3.70;99.90
13806;DHT22;6974;53.606;9.872;2022-11-20T06:14:36;3.70;99.90
13806;DHT22;6974;53.606;9.872;2022-11-20T06:17:03;3.70;99.90
13806;DHT22;6974;53.606;9.872;2022-11-20T06:19:30;3.70;99.90
13806;DHT22;6974;53.606;9.872;2022-11-20T06:21:58;3.60;99.90
13806;DHT22;6974;53.606;9.872;2022-11-20T06:24:25;3.60;99.90
13806;DHT22;6974;53.606;9.872;2022-11-20T06:26:52;3.60;99.90
13806;DHT22;6974;53.606;9.872;2022-11-20T06:29:19;3.60;99.90
13806;DHT22;6974;53.606;9.872;2022-11-20T06:31:46;3.60;99.90
13806;DHT22;6974;53.606;9.872;2022-11-20T06:34:13;3.60;99.90
13806;DHT22;6974;53.606;9.872;2022-11-20T06:36:39;3.70;99.90
13806;DHT22;6974;53.606;9.872;2022-11-20T06:39:08;3.70;99.90
13806;DHT22;6974;53.606;9.872;2022-11-20T06:41:35;3.70;99.90
13806;DHT22;6974;53.606;9.872;2022-11-20T06:44:03;3.60;99.90
13806;DHT22;6974;53.606;9.872;2022-11-20T06:46:31;3.60;99.90
13806;DHT22;6974;53.606;9.872;2022-11-20T06:48:58;3.60;99.90
13806;DHT22;6974;53.606;9.872;2022-11-20T06:51:25;3.60;99.90
13806;DHT22;6974;53.606;9.872;2022-11-20T06:53:52;3.60;99.90
13806;DHT22;6974;53.606;9.872;2022-11-20T06:56:20;3.60;99.90
13806;DHT22;6974;53.606;9.872;2022-11-20T06:58:47;3.60;99.90
13806;DHT22;6974;53.606;9.872;2022-11-20T07:01:14;3.50;99.90
13806;DHT22;6974;53.606;9.872;2022-11-20T07:03:42;3.50;99.90
13806;DHT22;6974;53.606;9.872;2022-11-20T07:06:09;3.50;99.90
13806;DHT22;6974;53.606;9.872;2022-11-20T07:08:36;3.50;99.90
13806;DHT22;6974;53.606;9.872;2022-11-20T07:11:05;3.40;99.90
13806;DHT22;6974;53.606;9.872;2022-11-20T07:13:33;3.50;99.90
13806;DHT22;6974;53.606;9.872;2022-11-20T07:16:02;3.50;99.90
13806;DHT22;6974;53.606;9.872;2022-11-20T07:18:29;3.50;99.90
13806;DHT22;6974;53.606;9.872;2022-11-20T07:20:59;3.50;99.90
13806;DHT22;6974;53.606;9.872;2022-11-20T07:23:26;3.50;99.90
13806;DHT22;6974;53.606;9.872;2022-11-20T07:25:53;3.50;99.90
13806;DHT22;6974;53.606;9.872;2022-11-20T07:28:20;3.50;99.90
13806;DHT22;6974;53.606;9.872;2022-11-20T07:30:51;3.50;99.90
13806;DHT22;6974;53.606;9.872;2022-11-20T07:33:18;3.50;99.90
13806;DHT22;6974;53.606;9.872;2022-11-20T07:35:45;3.50;99.90
13806;DHT22;6974;53.606;9.872;2022-11-20T07:38:13;3.50;99.90
13806;DHT22;6974;53.606;9.872;2022-11-20T07:40:39;3.60;99.90
13806;DHT22;6974;53.606;9.872;2022-11-20T07:43:06;3.50;99.90
13806;DHT22;6974;53.606;9.872;2022-11-20T07:45:33;3.50;99.90
13806;DHT22;6974;53.606;9.872;2022-11-20T07:48:02;3.60;99.90
13806;DHT22;6974;53.606;9.872;2022-11-20T07:50:29;3.60;99.90
13806;DHT22;6974;53.606;9.872;2022-11-20T07:53:01;3.70;99.90
13806;DHT22;6974;53.606;9.872;2022-11-20T07:55:28;3.60;99.90
13806;DHT22;6974;53.606;9.872;2022-11-20T07:57:55;3.60;99.90
13806;DHT22;6974;53.606;9.872;2022-11-20T08:00:23;3.70;99.90
13806;DHT22;6974;53.606;9.872;2022-11-20T08:02:50;3.70;99.90
13806;DHT22;6974;53.606;9.872;2022-11-20T08:05:18;3.70;99.90
13806;DHT22;6974;53.606;9.872;2022-11-20T08:07:45;3.60;99.90
13806;DHT22;6974;53.606;9.872;2022-11-20T08:10:14;3.60;99.90
13806;DHT22;6974;53.606;9.872;2022-11-20T08:12:45;3.70;99.90
13806;DHT22;6974;53.606;9.872;2022-11-20T08:15:48;3.70;99.90
13806;DHT22;6974;53.606;9.872;2022-11-20T08:18:17;3.60;99.90
13806;DHT22;6974;53.606;9.872;2022-11-20T08:20:45;3.70;99.90
13806;DHT22;6974;53.606;9.872;2022-11-20T08:23:12;3.70;99.90
13806;DHT22;6974;53.606;9.872;2022-11-20T08:25:39;3.70;99.90
13806;DHT22;6974;53.606;9.872;2022-11-20T08:28:08;3.60;99.90
13806;DHT22;6974;53.606;9.872;2022-11-20T08:30:36;3.60;99.90
13806;DHT22;6974;53.606;9.872;2022-11-20T08:33:04;3.60;99.90
13806;DHT22;6974;53.606;9.872;2022-11-20T08:35:33;3.60;99.90
13806;DHT22;6974;53.606;9.872;2022-11-20T08:38:03;3.70;99.90
13806;DHT22;6974;53.606;9.872;2022-11-20T08:40:30;3.70;99.90
13806;DHT22;6974;53.606;9.872;2022-11-20T08:42:57;3.70;99.90
13806;DHT22;6974;53.606;9.872;2022-11-20T08:45:24;3.70;99.90
13806;DHT22;6974;53.606;9.872;2022-11-20T08:47:51;3.70;99.90
13806;DHT22;6974;53.606;9.872;2022-11-20T08:50:18;3.80;99.90
13806;DHT22;6974;53.606;9.872;2022-11-20T08:52:45;3.80;99.90
13806;DHT22;6974;53.606;9.872;2022-11-20T08:55:13;3.80;99.90
13806;DHT22;6974;53.606;9.872;2022-11-20T08:57:40;3.80;99.90
13806;DHT22;6974;53.606;9.872;2022-11-20T09:00:09;3.80;99.90
13806;DHT22;6974;53.606;9.872;2022-11-20T09:02:36;3.80;99.90
13806;DHT22;6974;53.606;9.872;2022-11-20T09:05:04;3.80;99.90
13806;DHT22;6974;53.606;9.872;2022-11-20T09:07:31;3.80;99.90
13806;DHT22;6974;53.606;9.872;2022-11-20T09:09:58;3.80;99.90
13806;DHT22;6974;53.606;9.872;2022-11-20T09:12:26;3.90;99.90
13806;DHT22;6974;53.606;9.872;2022-11-20T09:14:53;3.90;99.90
13806;DHT22;6974;53.606;9.872;2022-11-20T09:17:20;3.90;99.90
13806;DHT22;6974;53.606;9.872;2022-11-20T09:19:47;3.90;99.90
13806;DHT22;6974;53.606;9.872;2022-11-20T09:22:14;3.80;99.90
13806;DHT22;6974;53.606;9.872;2022-11-20T09:24:41;3.90;99.90
13806;DHT22;6974;53.606;9.872;2022-11-20T09:27:08;3.90;99.90
13806;DHT22;6974;53.606;9.872;2022-11-20T09:29:36;3.90;99.90
13806;DHT22;6974;53.606;9.872;2022-11-20T09:32:03;3.90;99.90
13806;DHT22;6974;53.606;9.872;2022-11-20T09:34:30;3.90;99.90
13806;DHT22;6974;53.606;9.872;2022-11-20T09:36:57;3.80;99.90
13806;DHT22;6974;53.606;9.872;2022-11-20T09:39:24;3.90;99.90
13806;DHT22;6974;53.606;9.872;2022-11-20T09:42:08;3.90;99.90
13806;DHT22;6974;53.606;9.872;2022-11-20T09:45:02;3.90;99.90
13806;DHT22;6974;53.606;9.872;2022-11-20T09:47:42;3.80;99.90
13806;DHT22;6974;53.606;9.872;2022-11-20T09:50:23;3.80;99.90
13806;DHT22;6974;53.606;9.872;2022-11-20T09:53:04;3.80;99.90
13806;DHT22;6974;53.606;9.872;2022-11-20T09:55:35;3.90;99.90
13806;DHT22;6974;53.606;9.872;2022-11-20T09:58:06;4.00;99.90
13806;DHT22;6974;53.606;9.872;2022-11-20T10:00:36;4.00;99.90
13806;DHT22;6974;53.606;9.872;2022-11-20T10:03:10;4.00;99.90
13806;DHT22;6974;53.606;9.872;2022-11-20T10:05:42;4.00;99.90
13806;DHT22;6974;53.606;9.872;2022-11-20T10:08:16;4.10;99.90
13806;DHT22;6974;53.606;9.872;2022-11-20T10:10:48;4.10;99.90
13806;DHT22;6974;53.606;9.872;2022-11-20T10:13:34;4.20;99.90
13806;DHT22;6974;53.606;9.872;2022-11-20T10:16:15;4.20;99.90
13806;DHT22;6974;53.606;9.872;2022-11-20T10:18:56;4.20;99.90
13806;DHT22;6974;53.606;9.872;2022-11-20T10:21:30;4.30;99.90
13806;DHT22;6974;53.606;9.872;2022-11-20T10:24:41;4.30;99.90
13806;DHT22;6974;53.606;9.872;2022-11-20T10:27:21;4.20;99.90
13806;DHT22;6974;53.606;9.872;2022-11-20T10:30:00;4.30;99.90
13806;DHT22;6974;53.606;9.872;2022-11-20T10:32:33;4.40;99.90
13806;DHT22;6974;53.606;9.872;2022-11-20T10:35:06;4.40;99.90
13806;DHT22;6974;53.606;9.872;2022-11-20T10:37:36;4.40;99.90
13806;DHT22;6974;53.606;9.872;2022-11-20T10:40:14;4.50;99.90
13806;DHT22;6974;53.606;9.872;2022-11-20T10:42:47;4.50;99.90
13806;DHT22;6974;53.606;9.872;2022-11-20T10:45:21;4.40;99.90
13806;DHT22;6974;53.606;9.872;2022-11-20T10:48:07;4.50;99.90
13806;DHT22;6974;53.606;9.872;2022-11-20T10:50:42;4.50;99.90
13806;DHT22;6974;53.606;9.872;2022-11-20T10:53:18;4.50;99.90
13806;DHT22;6974;53.606;9.872;2022-11-20T10:55:53;4.50;99.90
13806;DHT22;6974;53.606;9.872;2022-11-20T10:58:29;4.40;99.90
13806;DHT22;6974;53.606;9.872;2022-11-20T11:01:03;4.40;99.90
13806;DHT22;6974;53.606;9.872;2022-11-20T11:03:32;4.50;99.90
13806;DHT22;6974;53.606;9.872;2022-11-20T11:06:03;4.50;99.90
13806;DHT22;6974;53.606;9.872;2022-11-20T11:08:36;4.50;99.90
13806;DHT22;6974;53.606;9.872;2022-11-20T11:11:16;4.50;99.90
13806;DHT22;6974;53.606;9.872;2022-11-20T11:13:44;4.50;99.90
13806;DHT22;6974;53.606;9.872;2022-11-20T11:16:21;4.50;99.90
13806;DHT22;6974;53.606;9.872;2022-11-20T11:18:50;4.40;99.90
13806;DHT22;6974;53.606;9.872;2022-11-20T11:21:22;4.50;99.90
13806;DHT22;6974;53.606;9.872;2022-11-20T11:23:59;4.50;99.90
13806;DHT22;6974;53.606;9.872;2022-11-20T11:26:26;4.50;99.90
13806;DHT22;6974;53.606;9.872;2022-11-20T11:28:57;4.50;99.90
13806;DHT22;6974;53.606;9.872;2022-11-20T11:31:27;4.60;99.90
13806;DHT22;6974;53.606;9.872;2022-11-20T11:34:05;4.60;99.90
13806;DHT22;6974;53.606;9.872;2022-11-20T11:36:33;4.60;99.90
13806;DHT22;6974;53.606;9.872;2022-11-20T11:39:02;4.60;99.90
13806;DHT22;6974;53.606;9.872;2022-11-20T11:41:32;4.60;99.90
13806;DHT22;6974;53.606;9.872;2022-11-20T11:44:16;4.60;99.90
13806;DHT22;6974;53.606;9.872;2022-11-20T11:47:02;4.60;99.90
13806;DHT22;6974;53.606;9.872;2022-11-20T11:49:31;4.70;99.90
13806;DHT22;6974;53.606;9.872;2022-11-20T11:52:07;4.70;99.90
13806;DHT22;6974;53.606;9.872;2022-11-20T11:54:41;4.80;99.90
13806;DHT22;6974;53.606;9.872;2022-11-20T11:57:14;4.70;99.90
13806;DHT22;6974;53.606;9.872;2022-11-20T11:59:53;4.80;99.90
13806;DHT22;6974;53.606;9.872;2022-11-20T12:02:29;4.70;99.90
13806;DHT22;6974;53.606;9.872;2022-11-20T12:05:03;4.80;99.90
13806;DHT22;6974;53.606;9.872;2022-11-20T12:07:41;4.80;99.90
13806;DHT22;6974;53.606;9.872;2022-11-20T12:10:16;4.80;99.90
13806;DHT22;6974;53.606;9.872;2022-11-20T12:12:46;4.80;99.90
13806;DHT22;6974;53.606;9.872;2022-11-20T12:15:23;4.80;99.90
13806;DHT22;6974;53.606;9.872;2022-11-20T12:17:51;4.80;99.90
13806;DHT22;6974;53.606;9.872;2022-11-20T12:20:22;4.80;99.90
13806;DHT22;6974;53.606;9.872;2022-11-20T12:22:55;4.80;99.90
13806;DHT22;6974;53.606;9.872;2022-11-20T12:25:27;4.80;99.90
13806;DHT22;6974;53.606;9.872;2022-11-20T12:28:18;4.90;99.90
13806;DHT22;6974;53.606;9.872;2022-11-20T12:30:58;4.90;99.90
13806;DHT22;6974;53.606;9.872;2022-11-20T12:33:45;4.90;99.90
13806;DHT22;6974;53.606;9.872;2022-11-20T12:36:27;5.00;99.90
13806;DHT22;6974;53.606;9.872;2022-11-20T12:39:21;5.00;99.90
13806;DHT22;6974;53.606;9.872;2022-11-20T12:42:02;5.00;99.90
13806;DHT22;6974;53.606;9.872;2022-11-20T12:45:35;4.90;99.90
13806;DHT22;6974;53.606;9.872;2022-11-20T12:51:25;5.00;99.90
13806;DHT22;6974;53.606;9.872;2022-11-20T12:54:10;5.00;99.90
13806;DHT22;6974;53.606;9.872;2022-11-20T12:56:47;5.00;99.90
13806;DHT22;6974;53.606;9.872;2022-11-20T12:59:28;4.90;99.90
13806;DHT22;6974;53.606;9.872;2022-11-20T13:02:09;4.90;99.90
13806;DHT22;6974;53.606;9.872;2022-11-20T13:04:54;5.00;99.90
13806;DHT22;6974;53.606;9.872;2022-11-20T13:07:25;5.00;99.90
13806;DHT22;6974;53.606;9.872;2022-11-20T13:09:53;5.00;99.90
13806;DHT22;6974;53.606;9.872;2022-11-20T13:12:25;5.00;99.90
13806;DHT22;6974;53.606;9.872;2022-11-20T13:15:02;5.10;99.90
13806;DHT22;6974;53.606;9.872;2022-11-20T13:17:36;5.10;99.90
13806;DHT22;6974;53.606;9.872;2022-11-20T13:20:06;5.10;99.90
13806;DHT22;6974;53.606;9.872;2022-11-20T13:22:45;5.10;99.90
13806;DHT22;6974;53.606;9.872;2022-11-20T13:25:22;5.10;99.90
13806;DHT22;6974;53.606;9.872;2022-11-20T13:27:50;5.10;99.90
13806;DHT22;6974;53.606;9.872;2022-11-20T13:30:19;5.10;99.90
13806;DHT22;6974;53.606;9.872;2022-11-20T13:32:51;5.20;99.90
13806;DHT22;6974;53.606;9.872;2022-11-20T13:35:27;5.20;99.90
13806;DHT22;6974;53.606;9.872;2022-11-20T13:38:07;5.10;99.90
13806;DHT22;6974;53.606;9.872;2022-11-20T13:40:36;5.10;99.90
13806;DHT22;6974;53.606;9.872;2022-11-20T13:43:21;5.00;99.90
13806;DHT22;6974;53.606;9.872;2022-11-20T13:45:58;5.00;99.90
13806;DHT22;6974;53.606;9.872;2022-11-20T13:48:29;5.00;99.90
13806;DHT22;6974;53.606;9.872;2022-11-20T13:51:04;5.00;99.90
13806;DHT22;6974;53.606;9.872;2022-11-20T13:53:54;5.10;99.90
13806;DHT22;6974;53.606;9.872;2022-11-20T13:56:34;5.10;99.90
13806;DHT22;6974;53.606;9.872;2022-11-20T13:59:09;5.10;99.90
13806;DHT22;6974;53.606;9.872;2022-11-20T14:01:40;5.10;99.90
13806;DHT22;6974;53.606;9.872;2022-11-20T14:04:09;5.00;99.90
13806;DHT22;6974;53.606;9.872;2022-11-20T14:06:42;5.00;99.90
13806;DHT22;6974;53.606;9.872;2022-11-20T14:09:23;5.10;99.90
13806;DHT22;6974;53.606;9.872;2022-11-20T14:11:50;5.00;99.90
13806;DHT22;6974;53.606;9.872;2022-11-20T14:14:19;5.00;99.90
13806;DHT22;6974;53.606;9.872;2022-11-20T14:16:47;5.00;99.90
13806;DHT22;6974;53.606;9.872;2022-11-20T14:19:25;5.10;99.90
13806;DHT22;6974;53.606;9.872;2022-11-20T14:22:08;5.10;99.90
13806;DHT22;6974;53.606;9.872;2022-11-20T14:24:37;5.10;99.90
13806;DHT22;6974;53.606;9.872;2022-11-20T14:27:04;5.10;99.90
13806;DHT22;6974;53.606;9.872;2022-11-20T14:29:35;5.10;99.90
13806;DHT22;6974;53.606;9.872;2022-11-20T14:32:03;5.00;99.90
13806;DHT22;6974;53.606;9.872;2022-11-20T14:34:35;5.00;99.90
13806;DHT22;6974;53.606;9.872;2022-11-20T14:37:06;5.00;99.90
13806;DHT22;6974;53.606;9.872;2022-11-20T14:39:41;5.00;99.90
13806;DHT22;6974;53.606;9.872;2022-11-20T14:42:15;4.90;99.90
13806;DHT22;6974;53.606;9.872;2022-11-20T14:44:43;4.90;99.90
13806;DHT22;6974;53.606;9.872;2022-11-20T14:47:12;4.90;99.90
13806;DHT22;6974;53.606;9.872;2022-11-20T14:49:40;4.90;99.90
13806;DHT22;6974;53.606;9.872;2022-11-20T14:52:13;4.90;99.90
13806;DHT22;6974;53.606;9.872;2022-11-20T14:54:45;4.90;99.90
13806;DHT22;6974;53.606;9.872;2022-11-20T14:57:25;4.90;99.90
13806;DHT22;6974;53.606;9.872;2022-11-20T15:00:05;4.90;99.90
13806;DHT22;6974;53.606;9.872;2022-11-20T15:02:32;4.80;99.90
13806;DHT22;6974;53.606;9.872;2022-11-20T15:15:23;4.80;99.90
13806;DHT22;6974;53.606;9.872;2022-11-20T15:17:51;4.80;99.90
13806;DHT22;6974;53.606;9.872;2022-11-20T15:20:20;4.80;99.90
13806;DHT22;6974;53.606;9.872;2022-11-20T15:22:51;4.80;99.90
13806;DHT22;6974;53.606;9.872;2022-11-20T15:25:18;4.80;99.90
13806;DHT22;6974;53.606;9.872;2022-11-20T15:27:52;4.80;99.90
13806;DHT22;6974;53.606;9.872;2022-11-20T15:30:22;4.70;99.90
13806;DHT22;6974;53.606;9.872;2022-11-20T15:32:49;4.70;99.90
13806;DHT22;6974;53.606;9.872;2022-11-20T15:35:16;4.70;99.90
13806;DHT22;6974;53.606;9.872;2022-11-20T15:37:43;4.70;99.90
13806;DHT22;6974;53.606;9.872;2022-11-20T15:40:11;4.80;99.90
13806;DHT22;6974;53.606;9.872;2022-11-20T15:42:38;4.70;99.90
13806;DHT22;6974;53.606;9.872;2022-11-20T15:45:29;4.80;99.90
13806;DHT22;6974;53.606;9.872;2022-11-20T15:47:57;4.80;99.90
13806;DHT22;6974;53.606;9.872;2022-11-20T15:50:29;4.80;99.90
13806;DHT22;6974;53.606;9.872;2022-11-20T15:52:58;4.80;99.90
13806;DHT22;6974;53.606;9.872;2022-11-20T15:55:25;4.80;99.90
13806;DHT22;6974;53.606;9.872;2022-11-20T15:57:52;4.80;99.90
13806;DHT22;6974;53.606;9.872;2022-11-20T16:00:22;4.80;99.90
13806;DHT22;6974;53.606;9.872;2022-11-20T16:02:52;4.80;99.90
13806;DHT22;6974;53.606;9.872;2022-11-20T16:05:19;4.80;99.90
13806;DHT22;6974;53.606;9.872;2022-11-20T16:07:48;4.80;99.90
13806;DHT22;6974;53.606;9.872;2022-11-20T16:10:16;4.80;99.90
13806;DHT22;6974;53.606;9.872;2022-11-20T16:12:43;4.80;99.90
13806;DHT22;6974;53.606;9.872;2022-11-20T16:15:28;4.80;99.90
13806;DHT22;6974;53.606;9.872;2022-11-20T16:18:17;4.80;99.90
13806;DHT22;6974;53.606;9.872;2022-11-20T16:20:45;4.80;99.90
13806;DHT22;6974;53.606;9.872;2022-11-20T16:23:12;4.70;99.90
13806;DHT22;6974;53.606;9.872;2022-11-20T16:25:39;4.70;99.90
13806;DHT22;6974;53.606;9.872;2022-11-20T16:28:07;4.80;99.90
13806;DHT22;6974;53.606;9.872;2022-11-20T16:30:34;4.70;99.90
13806;DHT22;6974;53.606;9.872;2022-11-20T16:33:03;4.70;99.90
13806;DHT22;6974;53.606;9.872;2022-11-20T16:35:32;4.70;99.90
13806;DHT22;6974;53.606;9.872;2022-11-20T16:37:59;4.70;99.90